sensor_id;sensor_type;location;lat;lon;timestamp;P1;durP1;ratioP1;P2;durP2;ratioP2
787;SDS011;16074;42.708;23.312;2023-01-15T00:00:17;23.15;;;15.43;;
787;SDS011;16074;42.708;23.312;2023-01-15T00:02:45;21.92;;;15.80;;
787;SDS011;16074;42.708;23.312;2023-01-15T00:05:14;21.17;;;14.77;;
787;SDS011;16074;42.708;23.312;2023-01-15T00:07:42;24.27;;;16.17;;
787;SDS011;16074;42.708;23.312;2023-01-15T00:10:10;25.92;;;16.17;;
787;SDS011;16074;42.708;23.312;2023-01-15T00:12:40;27.50;;;16.60;;
787;SDS011;16074;42.708;23.312;2023-01-15T00:15:09;27.13;;;17.13;;
787;SDS011;16074;42.708;23.312;2023-01-15T00:17:40;25.50;;;16.20;;
787;SDS011;16074;42.708;23.312;2023-01-15T00:20:09;23.00;;;15.60;;
787;SDS011;16074;42.708;23.312;2023-01-15T00:22:37;27.52;;;14.77;;
787;SDS011;16074;42.708;23.312;2023-01-15T00:25:06;22.25;;;14.98;;
787;SDS011;16074;42.708;23.312;2023-01-15T00:27:55;20.42;;;15.00;;
787;SDS011;16074;42.708;23.312;2023-01-15T00:30:23;21.35;;;16.27;;
787;SDS011;16074;42.708;23.312;2023-01-15T00:32:51;23.48;;;15.75;;
787;SDS011;16074;42.708;23.312;2023-01-15T00:35:21;19.80;;;13.73;;
787;SDS011;16074;42.708;23.312;2023-01-15T00:37:50;21.65;;;15.70;;
787;SDS011;16074;42.708;23.312;2023-01-15T00:40:19;18.00;;;14.88;;
787;SDS011;16074;42.708;23.312;2023-01-15T00:42:48;25.15;;;17.30;;
787;SDS011;16074;42.708;23.312;2023-01-15T00:45:21;19.88;;;14.88;;
787;SDS011;16074;42.708;23.312;2023-01-15T00:47:50;21.40;;;16.10;;
787;SDS011;16074;42.708;23.312;2023-01-15T00:50:19;23.63;;;15.10;;
787;SDS011;16074;42.708;23.312;2023-01-15T00:52:47;24.42;;;15.65;;
787;SDS011;16074;42.708;23.312;2023-01-15T00:55:16;23.83;;;17.40;;
787;SDS011;16074;42.708;23.312;2023-01-15T00:57:44;20.48;;;14.85;;
787;SDS011;16074;42.708;23.312;2023-01-15T01:00:13;21.17;;;13.82;;
787;SDS011;16074;42.708;23.312;2023-01-15T01:02:43;21.45;;;14.57;;
787;SDS011;16074;42.708;23.312;2023-01-15T01:05:11;20.15;;;13.90;;
787;SDS011;16074;42.708;23.312;2023-01-15T01:07:40;19.95;;;14.43;;
787;SDS011;16074;42.708;23.312;2023-01-15T01:10:09;19.83;;;14.77;;
787;SDS011;16074;42.708;23.312;2023-01-15T01:12:38;21.30;;;15.00;;
787;SDS011;16074;42.708;23.312;2023-01-15T01:15:06;23.42;;;14.90;;
787;SDS011;16074;42.708;23.312;2023-01-15T01:17:36;18.67;;;13.73;;
787;SDS011;16074;42.708;23.312;2023-01-15T01:20:07;23.75;;;16.15;;
787;SDS011;16074;42.708;23.312;2023-01-15T01:22:36;20.70;;;12.77;;
787;SDS011;16074;42.708;23.312;2023-01-15T01:25:05;18.88;;;14.05;;
787;SDS011;16074;42.708;23.312;2023-01-15T01:27:35;17.55;;;12.68;;
787;SDS011;16074;42.708;23.312;2023-01-15T01:30:04;16.45;;;11.70;;
787;SDS011;16074;42.708;23.312;2023-01-15T01:32:33;14.30;;;12.00;;
787;SDS011;16074;42.708;23.312;2023-01-15T01:35:02;15.80;;;12.45;;
787;SDS011;16074;42.708;23.312;2023-01-15T01:37:32;16.63;;;11.95;;
787;SDS011;16074;42.708;23.312;2023-01-15T01:40:00;20.58;;;12.10;;
787;SDS011;16074;42.708;23.312;2023-01-15T01:42:28;20.83;;;12.40;;
787;SDS011;16074;42.708;23.312;2023-01-15T01:44:59;17.70;;;11.80;;
787;SDS011;16074;42.708;23.312;2023-01-15T01:47:30;18.42;;;11.55;;
787;SDS011;16074;42.708;23.312;2023-01-15T01:50:01;20.00;;;12.88;;
787;SDS011;16074;42.708;23.312;2023-01-15T01:52:37;20.00;;;14.00;;
787;SDS011;16074;42.708;23.312;2023-01-15T01:55:08;19.83;;;12.40;;
787;SDS011;16074;42.708;23.312;2023-01-15T01:57:38;16.98;;;11.50;;
787;SDS011;16074;42.708;23.312;2023-01-15T02:00:08;19.27;;;12.65;;
787;SDS011;16074;42.708;23.312;2023-01-15T02:02:41;19.00;;;11.70;;
787;SDS011;16074;42.708;23.312;2023-01-15T02:05:13;17.73;;;12.15;;
787;SDS011;16074;42.708;23.312;2023-01-15T02:07:57;15.88;;;11.88;;
787;SDS011;16074;42.708;23.312;2023-01-15T02:10:27;17.58;;;10.45;;
787;SDS011;16074;42.708;23.312;2023-01-15T02:12:57;19.63;;;12.35;;
787;SDS011;16074;42.708;23.312;2023-01-15T02:15:31;17.25;;;12.40;;
787;SDS011;16074;42.708;23.312;2023-01-15T02:18:05;15.38;;;11.38;;
787;SDS011;16074;42.708;23.312;2023-01-15T02:20:40;14.93;;;11.98;;
787;SDS011;16074;42.708;23.312;2023-01-15T02:23:25;14.55;;;11.38;;
787;SDS011;16074;42.708;23.312;2023-01-15T02:29:11;15.13;;;11.20;;
787;SDS011;16074;42.708;23.312;2023-01-15T02:31:45;16.27;;;10.95;;
787;SDS011;16074;42.708;23.312;2023-01-15T02:34:19;15.88;;;12.02;;
787;SDS011;16074;42.708;23.312;2023-01-15T02:36:53;15.00;;;11.73;;
787;SDS011;16074;42.708;23.312;2023-01-15T02:39:28;14.32;;;11.00;;
787;SDS011;16074;42.708;23.312;2023-01-15T02:41:59;15.65;;;10.82;;
787;SDS011;16074;42.708;23.312;2023-01-15T02:44:38;16.17;;;12.32;;
787;SDS011;16074;42.708;23.312;2023-01-15T02:47:12;16.80;;;11.95;;
787;SDS011;16074;42.708;23.312;2023-01-15T02:49:42;14.80;;;10.85;;
787;SDS011;16074;42.708;23.312;2023-01-15T02:52:17;13.75;;;10.57;;
787;SDS011;16074;42.708;23.312;2023-01-15T02:54:50;14.52;;;11.70;;
787;SDS011;16074;42.708;23.312;2023-01-15T02:57:21;16.15;;;12.15;;
787;SDS011;16074;42.708;23.312;2023-01-15T02:59:56;14.95;;;10.60;;
787;SDS011;16074;42.708;23.312;2023-01-15T03:02:28;17.98;;;12.82;;
787;SDS011;16074;42.708;23.312;2023-01-15T03:05:05;15.13;;;11.10;;
787;SDS011;16074;42.708;23.312;2023-01-15T03:07:39;13.40;;;11.15;;
787;SDS011;16074;42.708;23.312;2023-01-15T03:10:13;19.00;;;12.48;;
787;SDS011;16074;42.708;23.312;2023-01-15T03:12:44;18.60;;;10.15;;
787;SDS011;16074;42.708;23.312;2023-01-15T03:15:40;16.75;;;12.88;;
787;SDS011;16074;42.708;23.312;2023-01-15T03:18:35;14.35;;;11.60;;
787;SDS011;16074;42.708;23.312;2023-01-15T03:21:09;17.17;;;11.90;;
787;SDS011;16074;42.708;23.312;2023-01-15T03:23:43;19.27;;;11.70;;
787;SDS011;16074;42.708;23.312;2023-01-15T03:26:14;16.85;;;12.02;;
787;SDS011;16074;42.708;23.312;2023-01-15T03:28:43;20.08;;;12.05;;
787;SDS011;16074;42.708;23.312;2023-01-15T03:31:15;14.93;;;11.32;;
787;SDS011;16074;42.708;23.312;2023-01-15T03:33:43;16.73;;;11.02;;
787;SDS011;16074;42.708;23.312;2023-01-15T03:36:16;15.50;;;11.68;;
787;SDS011;16074;42.708;23.312;2023-01-15T03:38:47;17.63;;;13.13;;
787;SDS011;16074;42.708;23.312;2023-01-15T03:41:32;17.80;;;11.95;;
787;SDS011;16074;42.708;23.312;2023-01-15T03:44:13;14.10;;;11.48;;
787;SDS011;16074;42.708;23.312;2023-01-15T03:46:55;20.17;;;13.13;;
787;SDS011;16074;42.708;23.312;2023-01-15T03:49:36;18.13;;;11.70;;
787;SDS011;16074;42.708;23.312;2023-01-15T03:52:23;18.10;;;12.30;;
787;SDS011;16074;42.708;23.312;2023-01-15T03:55:00;16.80;;;12.20;;
787;SDS011;16074;42.708;23.312;2023-01-15T03:57:40;15.85;;;11.20;;
787;SDS011;16074;42.708;23.312;2023-01-15T04:00:14;16.05;;;10.25;;
787;SDS011;16074;42.708;23.312;2023-01-15T04:02:53;17.00;;;11.98;;
787;SDS011;16074;42.708;23.312;2023-01-15T04:05:25;17.05;;;11.13;;
787;SDS011;16074;42.708;23.312;2023-01-15T04:07:56;14.57;;;11.23;;
787;SDS011;16074;42.708;23.312;2023-01-15T04:10:28;15.38;;;11.60;;
787;SDS011;16074;42.708;23.312;2023-01-15T04:12:57;15.38;;;11.43;;
787;SDS011;16074;42.708;23.312;2023-01-15T04:15:26;13.80;;;11.30;;
787;SDS011;16074;42.708;23.312;2023-01-15T04:17:55;12.23;;;9.63;;
787;SDS011;16074;42.708;23.312;2023-01-15T04:20:27;15.52;;;12.05;;
787;SDS011;16074;42.708;23.312;2023-01-15T04:22:56;13.48;;;10.05;;
787;SDS011;16074;42.708;23.312;2023-01-15T04:25:24;15.52;;;11.35;;
787;SDS011;16074;42.708;23.312;2023-01-15T04:27:52;14.10;;;10.90;;
787;SDS011;16074;42.708;23.312;2023-01-15T04:30:21;13.95;;;10.60;;
787;SDS011;16074;42.708;23.312;2023-01-15T04:32:50;16.33;;;11.75;;
787;SDS011;16074;42.708;23.312;2023-01-15T04:35:20;13.50;;;10.00;;
787;SDS011;16074;42.708;23.312;2023-01-15T04:37:48;15.07;;;10.93;;
787;SDS011;16074;42.708;23.312;2023-01-15T04:40:16;16.45;;;11.40;;
787;SDS011;16074;42.708;23.312;2023-01-15T04:42:58;13.85;;;9.88;;
787;SDS011;16074;42.708;23.312;2023-01-15T04:45:44;14.45;;;10.60;;
787;SDS011;16074;42.708;23.312;2023-01-15T04:48:13;12.88;;;10.05;;
787;SDS011;16074;42.708;23.312;2023-01-15T04:50:43;12.05;;;10.40;;
787;SDS011;16074;42.708;23.312;2023-01-15T04:53:11;12.82;;;10.02;;
787;SDS011;16074;42.708;23.312;2023-01-15T04:55:39;13.80;;;11.30;;
787;SDS011;16074;42.708;23.312;2023-01-15T04:58:08;15.75;;;11.07;;
787;SDS011;16074;42.708;23.312;2023-01-15T05:00:36;12.63;;;8.38;;
787;SDS011;16074;42.708;23.312;2023-01-15T05:03:04;11.80;;;10.05;;
787;SDS011;16074;42.708;23.312;2023-01-15T05:05:32;11.70;;;9.20;;
787;SDS011;16074;42.708;23.312;2023-01-15T05:08:02;13.77;;;8.95;;
787;SDS011;16074;42.708;23.312;2023-01-15T05:10:31;12.57;;;9.45;;
787;SDS011;16074;42.708;23.312;2023-01-15T05:12:59;15.45;;;9.73;;
787;SDS011;16074;42.708;23.312;2023-01-15T05:15:28;13.23;;;9.45;;
787;SDS011;16074;42.708;23.312;2023-01-15T05:17:56;14.98;;;9.43;;
787;SDS011;16074;42.708;23.312;2023-01-15T05:20:27;11.13;;;8.98;;
787;SDS011;16074;42.708;23.312;2023-01-15T05:22:55;13.75;;;9.82;;
787;SDS011;16074;42.708;23.312;2023-01-15T05:25:25;11.77;;;8.75;;
787;SDS011;16074;42.708;23.312;2023-01-15T05:27:53;11.25;;;8.82;;
787;SDS011;16074;42.708;23.312;2023-01-15T05:30:21;11.05;;;8.50;;
787;SDS011;16074;42.708;23.312;2023-01-15T05:32:50;10.38;;;8.77;;
787;SDS011;16074;42.708;23.312;2023-01-15T05:35:18;12.43;;;8.75;;
787;SDS011;16074;42.708;23.312;2023-01-15T05:37:47;9.70;;;8.48;;
787;SDS011;16074;42.708;23.312;2023-01-15T05:40:15;10.38;;;8.45;;
787;SDS011;16074;42.708;23.312;2023-01-15T05:42:45;10.63;;;8.15;;
787;SDS011;16074;42.708;23.312;2023-01-15T05:45:13;14.98;;;9.55;;
787;SDS011;16074;42.708;23.312;2023-01-15T05:47:41;11.93;;;8.75;;
787;SDS011;16074;42.708;23.312;2023-01-15T05:50:10;12.32;;;8.52;;
787;SDS011;16074;42.708;23.312;2023-01-15T05:52:38;9.63;;;8.35;;
787;SDS011;16074;42.708;23.312;2023-01-15T05:55:07;10.50;;;8.50;;
787;SDS011;16074;42.708;23.312;2023-01-15T05:57:36;12.70;;;9.35;;
787;SDS011;16074;42.708;23.312;2023-01-15T06:00:06;11.10;;;8.82;;
787;SDS011;16074;42.708;23.312;2023-01-15T06:02:38;11.07;;;8.35;;
787;SDS011;16074;42.708;23.312;2023-01-15T06:05:06;14.07;;;9.25;;
787;SDS011;16074;42.708;23.312;2023-01-15T06:07:35;9.93;;;8.20;;
787;SDS011;16074;42.708;23.312;2023-01-15T06:10:04;10.50;;;9.38;;
787;SDS011;16074;42.708;23.312;2023-01-15T06:12:33;13.75;;;9.68;;
787;SDS011;16074;42.708;23.312;2023-01-15T06:15:01;14.93;;;11.10;;
787;SDS011;16074;42.708;23.312;2023-01-15T06:17:31;14.15;;;9.52;;
787;SDS011;16074;42.708;23.312;2023-01-15T06:19:59;10.05;;;8.25;;
787;SDS011;16074;42.708;23.312;2023-01-15T06:22:27;11.35;;;8.88;;
787;SDS011;16074;42.708;23.312;2023-01-15T06:24:56;12.63;;;9.68;;
787;SDS011;16074;42.708;23.312;2023-01-15T06:27:24;10.52;;;7.97;;
787;SDS011;16074;42.708;23.312;2023-01-15T06:29:53;13.65;;;9.43;;
787;SDS011;16074;42.708;23.312;2023-01-15T06:32:24;12.50;;;10.40;;
787;SDS011;16074;42.708;23.312;2023-01-15T06:34:54;14.18;;;11.02;;
787;SDS011;16074;42.708;23.312;2023-01-15T06:37:22;13.70;;;12.30;;
787;SDS011;16074;42.708;23.312;2023-01-15T06:39:51;12.68;;;10.43;;
787;SDS011;16074;42.708;23.312;2023-01-15T06:42:19;13.80;;;10.82;;
787;SDS011;16074;42.708;23.312;2023-01-15T06:45:05;17.42;;;12.18;;
787;SDS011;16074;42.708;23.312;2023-01-15T06:47:51;28.67;;;17.00;;
787;SDS011;16074;42.708;23.312;2023-01-15T06:50:20;19.65;;;14.07;;
787;SDS011;16074;42.708;23.312;2023-01-15T06:52:48;17.95;;;12.43;;
787;SDS011;16074;42.708;23.312;2023-01-15T06:55:17;25.40;;;16.48;;
787;SDS011;16074;42.708;23.312;2023-01-15T06:57:45;24.67;;;16.77;;
787;SDS011;16074;42.708;23.312;2023-01-15T07:00:14;29.65;;;19.75;;
787;SDS011;16074;42.708;23.312;2023-01-15T07:02:43;25.33;;;18.88;;
787;SDS011;16074;42.708;23.312;2023-01-15T07:05:11;30.23;;;20.05;;
787;SDS011;16074;42.708;23.312;2023-01-15T07:07:40;37.47;;;21.70;;
787;SDS011;16074;42.708;23.312;2023-01-15T07:10:09;30.50;;;22.80;;
787;SDS011;16074;42.708;23.312;2023-01-15T07:12:38;31.98;;;21.35;;
787;SDS011;16074;42.708;23.312;2023-01-15T07:15:07;28.92;;;19.35;;
787;SDS011;16074;42.708;23.312;2023-01-15T07:17:35;33.28;;;23.63;;
787;SDS011;16074;42.708;23.312;2023-01-15T07:20:04;31.52;;;23.48;;
787;SDS011;16074;42.708;23.312;2023-01-15T07:22:33;26.48;;;20.70;;
787;SDS011;16074;42.708;23.312;2023-01-15T07:25:03;28.67;;;19.17;;
787;SDS011;16074;42.708;23.312;2023-01-15T07:27:32;29.02;;;22.67;;
787;SDS011;16074;42.708;23.312;2023-01-15T07:30:01;28.23;;;20.77;;
787;SDS011;16074;42.708;23.312;2023-01-15T07:32:29;37.58;;;23.10;;
787;SDS011;16074;42.708;23.312;2023-01-15T07:34:57;30.13;;;21.73;;
787;SDS011;16074;42.708;23.312;2023-01-15T07:37:25;29.40;;;21.00;;
787;SDS011;16074;42.708;23.312;2023-01-15T07:39:54;26.63;;;21.88;;
787;SDS011;16074;42.708;23.312;2023-01-15T07:42:24;30.98;;;20.80;;
787;SDS011;16074;42.708;23.312;2023-01-15T07:45:10;35.28;;;23.05;;
787;SDS011;16074;42.708;23.312;2023-01-15T07:47:55;22.90;;;16.00;;
787;SDS011;16074;42.708;23.312;2023-01-15T07:50:41;19.42;;;15.52;;
787;SDS011;16074;42.708;23.312;2023-01-15T07:53:09;21.60;;;15.55;;
787;SDS011;16074;42.708;23.312;2023-01-15T07:55:37;17.48;;;14.02;;
787;SDS011;16074;42.708;23.312;2023-01-15T07:58:07;19.23;;;13.45;;
787;SDS011;16074;42.708;23.312;2023-01-15T08:00:35;18.80;;;13.50;;
787;SDS011;16074;42.708;23.312;2023-01-15T08:03:06;18.98;;;13.77;;
787;SDS011;16074;42.708;23.312;2023-01-15T08:05:34;21.58;;;16.80;;
787;SDS011;16074;42.708;23.312;2023-01-15T08:08:03;23.70;;;16.05;;
787;SDS011;16074;42.708;23.312;2023-01-15T08:10:31;19.00;;;15.73;;
787;SDS011;16074;42.708;23.312;2023-01-15T08:13:22;24.05;;;17.50;;
787;SDS011;16074;42.708;23.312;2023-01-15T08:16:08;21.08;;;14.98;;
787;SDS011;16074;42.708;23.312;2023-01-15T08:18:37;19.50;;;16.85;;
787;SDS011;16074;42.708;23.312;2023-01-15T08:21:06;16.90;;;15.07;;
787;SDS011;16074;42.708;23.312;2023-01-15T08:23:41;17.98;;;14.98;;
787;SDS011;16074;42.708;23.312;2023-01-15T08:26:11;20.35;;;16.63;;
787;SDS011;16074;42.708;23.312;2023-01-15T08:28:41;22.48;;;17.33;;
787;SDS011;16074;42.708;23.312;2023-01-15T08:31:10;23.75;;;18.17;;
787;SDS011;16074;42.708;23.312;2023-01-15T08:33:38;19.88;;;16.17;;
787;SDS011;16074;42.708;23.312;2023-01-15T08:36:06;26.02;;;17.13;;
787;SDS011;16074;42.708;23.312;2023-01-15T08:38:35;18.67;;;15.55;;
787;SDS011;16074;42.708;23.312;2023-01-15T08:41:04;18.55;;;12.88;;
787;SDS011;16074;42.708;23.312;2023-01-15T08:43:32;14.27;;;12.27;;
787;SDS011;16074;42.708;23.312;2023-01-15T08:46:03;18.58;;;14.20;;
787;SDS011;16074;42.708;23.312;2023-01-15T08:48:32;20.70;;;15.80;;
787;SDS011;16074;42.708;23.312;2023-01-15T08:51:02;15.23;;;13.65;;
787;SDS011;16074;42.708;23.312;2023-01-15T08:53:31;19.25;;;14.35;;
787;SDS011;16074;42.708;23.312;2023-01-15T08:55:59;16.95;;;11.88;;
787;SDS011;16074;42.708;23.312;2023-01-15T08:58:28;15.20;;;11.88;;
787;SDS011;16074;42.708;23.312;2023-01-15T09:01:04;14.60;;;12.98;;
787;SDS011;16074;42.708;23.312;2023-01-15T09:03:33;14.82;;;13.05;;
787;SDS011;16074;42.708;23.312;2023-01-15T09:06:02;19.27;;;12.25;;
787;SDS011;16074;42.708;23.312;2023-01-15T09:08:32;18.38;;;13.27;;
787;SDS011;16074;42.708;23.312;2023-01-15T09:11:01;15.93;;;12.32;;
787;SDS011;16074;42.708;23.312;2023-01-15T09:13:31;15.65;;;13.15;;
787;SDS011;16074;42.708;23.312;2023-01-15T09:15:59;17.23;;;13.52;;
787;SDS011;16074;42.708;23.312;2023-01-15T09:18:29;17.80;;;12.65;;
787;SDS011;16074;42.708;23.312;2023-01-15T09:20:58;13.50;;;12.10;;
787;SDS011;16074;42.708;23.312;2023-01-15T09:23:27;15.90;;;11.30;;
787;SDS011;16074;42.708;23.312;2023-01-15T09:25:56;12.88;;;10.80;;
787;SDS011;16074;42.708;23.312;2023-01-15T09:28:27;15.35;;;12.15;;
787;SDS011;16074;42.708;23.312;2023-01-15T09:30:56;13.45;;;11.82;;
787;SDS011;16074;42.708;23.312;2023-01-15T09:33:24;15.00;;;12.85;;
787;SDS011;16074;42.708;23.312;2023-01-15T09:35:54;14.38;;;12.18;;
787;SDS011;16074;42.708;23.312;2023-01-15T09:38:22;13.57;;;12.18;;
787;SDS011;16074;42.708;23.312;2023-01-15T09:40:50;15.38;;;13.00;;
787;SDS011;16074;42.708;23.312;2023-01-15T09:43:25;19.45;;;14.40;;
787;SDS011;16074;42.708;23.312;2023-01-15T09:46:14;21.50;;;14.38;;
787;SDS011;16074;42.708;23.312;2023-01-15T09:48:48;18.17;;;12.38;;
787;SDS011;16074;42.708;23.312;2023-01-15T09:51:26;17.38;;;13.63;;
787;SDS011;16074;42.708;23.312;2023-01-15T09:54:05;20.85;;;17.83;;
787;SDS011;16074;42.708;23.312;2023-01-15T09:56:44;23.30;;;18.95;;
787;SDS011;16074;42.708;23.312;2023-01-15T09:59:18;26.40;;;19.15;;
787;SDS011;16074;42.708;23.312;2023-01-15T10:01:51;22.55;;;17.88;;
787;SDS011;16074;42.708;23.312;2023-01-15T10:04:24;25.45;;;19.92;;
787;SDS011;16074;42.708;23.312;2023-01-15T10:07:05;23.98;;;17.67;;
787;SDS011;16074;42.708;23.312;2023-01-15T10:09:38;26.98;;;19.10;;
787;SDS011;16074;42.708;23.312;2023-01-15T10:12:12;22.05;;;18.30;;
787;SDS011;16074;42.708;23.312;2023-01-15T10:15:09;18.98;;;17.05;;
787;SDS011;16074;42.708;23.312;2023-01-15T10:17:46;23.23;;;18.02;;
787;SDS011;16074;42.708;23.312;2023-01-15T10:20:16;21.65;;;17.42;;
787;SDS011;16074;42.708;23.312;2023-01-15T10:22:59;26.02;;;18.00;;
787;SDS011;16074;42.708;23.312;2023-01-15T10:25:39;20.33;;;15.88;;
787;SDS011;16074;42.708;23.312;2023-01-15T10:28:14;20.45;;;15.48;;
787;SDS011;16074;42.708;23.312;2023-01-15T10:30:48;20.83;;;16.70;;
787;SDS011;16074;42.708;23.312;2023-01-15T10:33:28;22.52;;;16.65;;
787;SDS011;16074;42.708;23.312;2023-01-15T10:36:07;16.40;;;14.43;;
787;SDS011;16074;42.708;23.312;2023-01-15T10:38:42;15.90;;;11.85;;
787;SDS011;16074;42.708;23.312;2023-01-15T10:41:23;14.60;;;12.35;;
787;SDS011;16074;42.708;23.312;2023-01-15T10:44:04;12.95;;;9.98;;
787;SDS011;16074;42.708;23.312;2023-01-15T10:46:39;19.92;;;13.77;;
787;SDS011;16074;42.708;23.312;2023-01-15T10:49:10;16.15;;;11.75;;
787;SDS011;16074;42.708;23.312;2023-01-15T10:51:41;13.57;;;12.18;;
787;SDS011;16074;42.708;23.312;2023-01-15T10:54:17;12.65;;;10.90;;
787;SDS011;16074;42.708;23.312;2023-01-15T10:56:53;17.17;;;14.35;;
787;SDS011;16074;42.708;23.312;2023-01-15T10:59:33;13.75;;;11.48;;
787;SDS011;16074;42.708;23.312;2023-01-15T11:02:13;18.17;;;12.77;;
787;SDS011;16074;42.708;23.312;2023-01-15T11:04:49;17.02;;;12.48;;
787;SDS011;16074;42.708;23.312;2023-01-15T11:07:17;15.60;;;12.55;;
787;SDS011;16074;42.708;23.312;2023-01-15T11:09:48;21.95;;;14.25;;
787;SDS011;16074;42.708;23.312;2023-01-15T11:12:21;17.10;;;13.50;;
787;SDS011;16074;42.708;23.312;2023-01-15T11:15:13;17.05;;;14.25;;
787;SDS011;16074;42.708;23.312;2023-01-15T11:18:00;17.52;;;14.52;;
787;SDS011;16074;42.708;23.312;2023-01-15T11:20:47;17.45;;;13.40;;
787;SDS011;16074;42.708;23.312;2023-01-15T11:23:17;18.33;;;13.57;;
787;SDS011;16074;42.708;23.312;2023-01-15T11:25:49;17.25;;;12.82;;
787;SDS011;16074;42.708;23.312;2023-01-15T11:28:28;15.82;;;13.43;;
787;SDS011;16074;42.708;23.312;2023-01-15T11:31:00;14.27;;;11.93;;
787;SDS011;16074;42.708;23.312;2023-01-15T11:33:29;12.10;;;10.23;;
787;SDS011;16074;42.708;23.312;2023-01-15T11:35:59;16.88;;;13.57;;
787;SDS011;16074;42.708;23.312;2023-01-15T11:38:31;15.25;;;11.60;;
787;SDS011;16074;42.708;23.312;2023-01-15T11:41:19;13.70;;;10.57;;
787;SDS011;16074;42.708;23.312;2023-01-15T11:43:53;11.45;;;10.25;;
787;SDS011;16074;42.708;23.312;2023-01-15T11:46:39;18.02;;;11.68;;
787;SDS011;16074;42.708;23.312;2023-01-15T11:49:25;13.13;;;10.27;;
787;SDS011;16074;42.708;23.312;2023-01-15T11:52:12;11.93;;;10.73;;
787;SDS011;16074;42.708;23.312;2023-01-15T11:54:45;13.80;;;11.55;;
787;SDS011;16074;42.708;23.312;2023-01-15T11:57:23;12.30;;;11.18;;
787;SDS011;16074;42.708;23.312;2023-01-15T11:59:54;12.70;;;10.10;;
787;SDS011;16074;42.708;23.312;2023-01-15T12:02:26;12.20;;;10.38;;
787;SDS011;16074;42.708;23.312;2023-01-15T12:05:03;12.85;;;10.27;;
787;SDS011;16074;42.708;23.312;2023-01-15T12:07:33;11.07;;;10.00;;
787;SDS011;16074;42.708;23.312;2023-01-15T12:10:10;11.55;;;9.80;;
787;SDS011;16074;42.708;23.312;2023-01-15T12:12:53;11.55;;;9.20;;
787;SDS011;16074;42.708;23.312;2023-01-15T12:15:32;10.60;;;8.93;;
787;SDS011;16074;42.708;23.312;2023-01-15T12:21:17;11.85;;;10.40;;
787;SDS011;16074;42.708;23.312;2023-01-15T12:24:09;11.82;;;9.32;;
787;SDS011;16074;42.708;23.312;2023-01-15T12:26:57;11.20;;;9.00;;
787;SDS011;16074;42.708;23.312;2023-01-15T12:29:37;13.20;;;9.98;;
787;SDS011;16074;42.708;23.312;2023-01-15T12:32:12;12.03;;;10.00;;
787;SDS011;16074;42.708;23.312;2023-01-15T12:34:44;10.23;;;8.38;;
787;SDS011;16074;42.708;23.312;2023-01-15T12:37:16;10.57;;;9.00;;
787;SDS011;16074;42.708;23.312;2023-01-15T12:39:51;9.50;;;8.60;;
787;SDS011;16074;42.708;23.312;2023-01-15T12:42:23;10.93;;;8.70;;
787;SDS011;16074;42.708;23.312;2023-01-15T12:45:14;10.83;;;7.90;;
787;SDS011;16074;42.708;23.312;2023-01-15T12:47:45;11.67;;;8.23;;
787;SDS011;16074;42.708;23.312;2023-01-15T12:50:27;13.47;;;10.10;;
787;SDS011;16074;42.708;23.312;2023-01-15T12:53:04;12.40;;;11.13;;
787;SDS011;16074;42.708;23.312;2023-01-15T12:55:41;10.77;;;8.70;;
787;SDS011;16074;42.708;23.312;2023-01-15T12:58:18;9.87;;;8.97;;
787;SDS011;16074;42.708;23.312;2023-01-15T13:01:02;10.67;;;9.57;;
787;SDS011;16074;42.708;23.312;2023-01-15T13:03:39;10.77;;;9.07;;
787;SDS011;16074;42.708;23.312;2023-01-15T13:06:16;10.30;;;9.27;;
787;SDS011;16074;42.708;23.312;2023-01-15T13:08:48;9.37;;;8.43;;
787;SDS011;16074;42.708;23.312;2023-01-15T13:11:23;12.10;;;10.27;;
787;SDS011;16074;42.708;23.312;2023-01-15T13:13:52;12.57;;;9.70;;
787;SDS011;16074;42.708;23.312;2023-01-15T13:16:30;11.27;;;9.77;;
787;SDS011;16074;42.708;23.312;2023-01-15T13:19:10;8.40;;;7.60;;
787;SDS011;16074;42.708;23.312;2023-01-15T13:21:50;11.03;;;9.10;;
787;SDS011;16074;42.708;23.312;2023-01-15T13:24:31;9.10;;;8.23;;
787;SDS011;16074;42.708;23.312;2023-01-15T13:27:16;9.80;;;8.40;;
787;SDS011;16074;42.708;23.312;2023-01-15T13:30:08;8.05;;;7.25;;
787;SDS011;16074;42.708;23.312;2023-01-15T13:32:48;9.77;;;8.43;;
787;SDS011;16074;42.708;23.312;2023-01-15T13:35:20;12.63;;;9.25;;
787;SDS011;16074;42.708;23.312;2023-01-15T13:37:57;12.80;;;9.70;;
787;SDS011;16074;42.708;23.312;2023-01-15T13:40:28;13.82;;;9.98;;
787;SDS011;16074;42.708;23.312;2023-01-15T13:43:00;10.63;;;9.52;;
787;SDS011;16074;42.708;23.312;2023-01-15T13:45:34;13.40;;;11.40;;
787;SDS011;16074;42.708;23.312;2023-01-15T13:48:07;11.55;;;9.30;;
787;SDS011;16074;42.708;23.312;2023-01-15T13:50:41;11.25;;;9.70;;
787;SDS011;16074;42.708;23.312;2023-01-15T13:53:23;11.15;;;8.82;;
787;SDS011;16074;42.708;23.312;2023-01-15T13:55:55;10.45;;;8.88;;
787;SDS011;16074;42.708;23.312;2023-01-15T13:58:28;13.02;;;9.80;;
787;SDS011;16074;42.708;23.312;2023-01-15T14:01:02;12.20;;;10.60;;
787;SDS011;16074;42.708;23.312;2023-01-15T14:03:36;11.10;;;9.65;;
787;SDS011;16074;42.708;23.312;2023-01-15T14:06:05;11.52;;;10.10;;
787;SDS011;16074;42.708;23.312;2023-01-15T14:08:36;14.25;;;9.90;;
787;SDS011;16074;42.708;23.312;2023-01-15T14:14:10;10.05;;;8.55;;
787;SDS011;16074;42.708;23.312;2023-01-15T14:16:49;13.32;;;10.38;;
787;SDS011;16074;42.708;23.312;2023-01-15T14:22:34;12.98;;;9.63;;
787;SDS011;16074;42.708;23.312;2023-01-15T14:28:13;12.20;;;11.00;;
787;SDS011;16074;42.708;23.312;2023-01-15T14:33:50;11.10;;;10.00;;
787;SDS011;16074;42.708;23.312;2023-01-15T14:36:24;16.00;;;11.70;;
787;SDS011;16074;42.708;23.312;2023-01-15T14:38:57;12.60;;;11.05;;
787;SDS011;16074;42.708;23.312;2023-01-15T14:41:27;13.82;;;11.57;;
787;SDS011;16074;42.708;23.312;2023-01-15T14:43:58;15.30;;;13.70;;
787;SDS011;16074;42.708;23.312;2023-01-15T14:46:28;15.70;;;12.90;;
787;SDS011;16074;42.708;23.312;2023-01-15T14:48:59;14.60;;;11.93;;
787;SDS011;16074;42.708;23.312;2023-01-15T14:51:29;14.98;;;12.65;;
787;SDS011;16074;42.708;23.312;2023-01-15T14:54:03;13.23;;;11.88;;
787;SDS011;16074;42.708;23.312;2023-01-15T14:56:36;11.43;;;10.23;;
787;SDS011;16074;42.708;23.312;2023-01-15T14:59:14;11.95;;;10.65;;
787;SDS011;16074;42.708;23.312;2023-01-15T15:01:49;12.52;;;11.15;;
787;SDS011;16074;42.708;23.312;2023-01-15T15:04:20;15.23;;;11.60;;
787;SDS011;16074;42.708;23.312;2023-01-15T15:06:52;15.68;;;12.13;;
787;SDS011;16074;42.708;23.312;2023-01-15T15:09:27;14.15;;;12.20;;
787;SDS011;16074;42.708;23.312;2023-01-15T15:12:04;18.48;;;12.07;;
787;SDS011;16074;42.708;23.312;2023-01-15T15:14:48;17.50;;;12.55;;
787;SDS011;16074;42.708;23.312;2023-01-15T15:17:33;17.35;;;13.23;;
787;SDS011;16074;42.708;23.312;2023-01-15T15:20:14;18.73;;;13.38;;
787;SDS011;16074;42.708;23.312;2023-01-15T15:22:48;16.02;;;13.43;;
787;SDS011;16074;42.708;23.312;2023-01-15T15:25:24;17.40;;;13.40;;
787;SDS011;16074;42.708;23.312;2023-01-15T15:28:02;20.80;;;14.60;;
787;SDS011;16074;42.708;23.312;2023-01-15T15:30:33;19.80;;;14.07;;